sensor_id;sensor_type;location;lat;lon;timestamp;P1;P2;P0
61815;PMS5003;57055;-35.296;149.168;2023-02-01T00:01:04;8;8;
61815;PMS5003;57055;-35.296;149.168;2023-02-01T00:03:34;8;8;
61815;PMS5003;57055;-35.296;149.168;2023-02-01T00:06:03;10;9;
61815;PMS5003;57055;-35.296;149.168;2023-02-01T00:08:32;7;7;
61815;PMS5003;57055;-35.296;149.168;2023-02-01T00:11:03;9;9;
61815;PMS5003;57055;-35.296;149.168;2023-02-01T00:13:33;7;7;
61815;PMS5003;57055;-35.296;149.168;2023-02-01T00:16:05;10;8;
61815;PMS5003;57055;-35.296;149.168;2023-02-01T00:18:35;8;8;
61815;PMS5003;57055;-35.296;149.168;2023-02-01T00:21:04;7;7;
61815;PMS5003;57055;-35.296;149.168;2023-02-01T00:23:33;7;7;
61815;PMS5003;57055;-35.296;149.168;2023-02-01T00:26:03;7;7;
61815;PMS5003;57055;-35.296;149.168;2023-02-01T00:28:34;5;5;
61815;PMS5003;57055;-35.296;149.168;2023-02-01T00:31:03;8;8;
61815;PMS5003;57055;-35.296;149.168;2023-02-01T00:33:32;7;7;
61815;PMS5003;57055;-35.296;149.168;2023-02-01T00:36:03;5;5;
61815;PMS5003;57055;-35.296;149.168;2023-02-01T00:38:36;7;7;
61815;PMS5003;57055;-35.296;149.168;2023-02-01T00:41:07;7;7;
61815;PMS5003;57055;-35.296;149.168;2023-02-01T00:43:39;8;8;
61815;PMS5003;57055;-35.296;149.168;2023-02-01T00:46:08;8;8;
61815;PMS5003;57055;-35.296;149.168;2023-02-01T00:48:38;6;6;
61815;PMS5003;57055;-35.296;149.168;2023-02-01T00:51:08;6;6;
61815;PMS5003;57055;-35.296;149.168;2023-02-01T00:53:39;8;8;
61815;PMS5003;57055;-35.296;149.168;2023-02-01T00:56:08;6;6;
61815;PMS5003;57055;-35.296;149.168;2023-02-01T00:58:37;8;8;
61815;PMS5003;57055;-35.296;149.168;2023-02-01T01:01:08;8;8;
61815;PMS5003;57055;-35.296;149.168;2023-02-01T01:03:39;6;6;
61815;PMS5003;57055;-35.296;149.168;2023-02-01T01:06:10;7;5;
61815;PMS5003;57055;-35.296;149.168;2023-02-01T01:08:40;7;7;
61815;PMS5003;57055;-35.296;149.168;2023-02-01T01:11:11;5;5;
61815;PMS5003;57055;-35.296;149.168;2023-02-01T01:13:42;7;6;
61815;PMS5003;57055;-35.296;149.168;2023-02-01T01:16:13;7;6;
61815;PMS5003;57055;-35.296;149.168;2023-02-01T01:18:42;6;6;
61815;PMS5003;57055;-35.296;149.168;2023-02-01T01:21:12;5;5;
61815;PMS5003;57055;-35.296;149.168;2023-02-01T01:23:42;7;7;
61815;PMS5003;57055;-35.296;149.168;2023-02-01T01:26:13;7;6;
61815;PMS5003;57055;-35.296;149.168;2023-02-01T01:28:43;6;6;
61815;PMS5003;57055;-35.296;149.168;2023-02-01T01:31:13;6;5;
61815;PMS5003;57055;-35.296;149.168;2023-02-01T01:33:44;5;5;
61815;PMS5003;57055;-35.296;149.168;2023-02-01T01:36:15;6;6;
61815;PMS5003;57055;-35.296;149.168;2023-02-01T01:38:45;6;6;
61815;PMS5003;57055;-35.296;149.168;2023-02-01T01:41:16;7;6;
61815;PMS5003;57055;-35.296;149.168;2023-02-01T01:43:49;6;6;
61815;PMS5003;57055;-35.296;149.168;2023-02-01T01:46:21;7;6;
61815;PMS5003;57055;-35.296;149.168;2023-02-01T01:48:53;4;4;
61815;PMS5003;57055;-35.296;149.168;2023-02-01T01:51:28;6;6;
61815;PMS5003;57055;-35.296;149.168;2023-02-01T01:54:01;7;6;
61815;PMS5003;57055;-35.296;149.168;2023-02-01T01:56:34;7;6;
61815;PMS5003;57055;-35.296;149.168;2023-02-01T01:59:03;6;6;
61815;PMS5003;57055;-35.296;149.168;2023-02-01T02:01:33;4;4;
61815;PMS5003;57055;-35.296;149.168;2023-02-01T02:04:02;5;5;
61815;PMS5003;57055;-35.296;149.168;2023-02-01T02:06:34;4;4;
61815;PMS5003;57055;-35.296;149.168;2023-02-01T02:09:09;3;3;
61815;PMS5003;57055;-35.296;149.168;2023-02-01T02:11:38;4;4;
61815;PMS5003;57055;-35.296;149.168;2023-02-01T02:14:08;4;4;
61815;PMS5003;57055;-35.296;149.168;2023-02-01T02:16:44;5;5;
61815;PMS5003;57055;-35.296;149.168;2023-02-01T02:19:32;5;5;
61815;PMS5003;57055;-35.296;149.168;2023-02-01T02:22:29;5;3;
61815;PMS5003;57055;-35.296;149.168;2023-02-01T02:25:18;4;3;
61815;PMS5003;57055;-35.296;149.168;2023-02-01T02:28:07;3;3;
61815;PMS5003;57055;-35.296;149.168;2023-02-01T02:31:02;3;3;
61815;PMS5003;57055;-35.296;149.168;2023-02-01T02:33:54;1;1;
61815;PMS5003;57055;-35.296;149.168;2023-02-01T02:36:31;1;1;
61815;PMS5003;57055;-35.296;149.168;2023-02-01T02:39:13;1;1;
61815;PMS5003;57055;-35.296;149.168;2023-02-01T02:41:53;3;3;
61815;PMS5003;57055;-35.296;149.168;2023-02-01T02:44:31;1;1;
61815;PMS5003;57055;-35.296;149.168;2023-02-01T02:47:11;3;3;
61815;PMS5003;57055;-35.296;149.168;2023-02-01T02:49:47;2;2;
61815;PMS5003;57055;-35.296;149.168;2023-02-01T02:52:21;2;2;
61815;PMS5003;57055;-35.296;149.168;2023-02-01T02:54:51;3;3;
61815;PMS5003;57055;-35.296;149.168;2023-02-01T02:57:22;3;3;
61815;PMS5003;57055;-35.296;149.168;2023-02-01T02:59:55;3;3;
61815;PMS5003;57055;-35.296;149.168;2023-02-01T03:02:25;5;4;
61815;PMS5003;57055;-35.296;149.168;2023-02-01T03:04:55;2;2;
61815;PMS5003;57055;-35.296;149.168;2023-02-01T03:07:59;3;3;
61815;PMS5003;57055;-35.296;149.168;2023-02-01T03:10:35;2;2;
61815;PMS5003;57055;-35.296;149.168;2023-02-01T03:13:13;4;3;
61815;PMS5003;57055;-35.296;149.168;2023-02-01T03:15:47;3;1;
61815;PMS5003;57055;-35.296;149.168;2023-02-01T03:18:26;2;2;
61815;PMS5003;57055;-35.296;149.168;2023-02-01T03:21:02;1;1;
61815;PMS5003;57055;-35.296;149.168;2023-02-01T03:23:37;1;1;
61815;PMS5003;57055;-35.296;149.168;2023-02-01T03:26:08;3;3;
61815;PMS5003;57055;-35.296;149.168;2023-02-01T03:28:41;2;2;
61815;PMS5003;57055;-35.296;149.168;2023-02-01T03:31:17;2;2;
61815;PMS5003;57055;-35.296;149.168;2023-02-01T03:33:46;3;3;
61815;PMS5003;57055;-35.296;149.168;2023-02-01T03:36:17;2;2;
61815;PMS5003;57055;-35.296;149.168;2023-02-01T03:38:54;2;2;
61815;PMS5003;57055;-35.296;149.168;2023-02-01T03:41:31;2;2;
61815;PMS5003;57055;-35.296;149.168;2023-02-01T03:44:08;1;1;
61815;PMS5003;57055;-35.296;149.168;2023-02-01T03:46:42;4;3;
61815;PMS5003;57055;-35.296;149.168;2023-02-01T03:49:18;2;2;
61815;PMS5003;57055;-35.296;149.168;2023-02-01T03:51:50;2;2;
61815;PMS5003;57055;-35.296;149.168;2023-02-01T03:54:21;2;2;
61815;PMS5003;57055;-35.296;149.168;2023-02-01T03:56:51;1;1;
61815;PMS5003;57055;-35.296;149.168;2023-02-01T03:59:24;2;2;
61815;PMS5003;57055;-35.296;149.168;2023-02-01T04:01:53;2;2;
61815;PMS5003;57055;-35.296;149.168;2023-02-01T04:04:22;2;2;
61815;PMS5003;57055;-35.296;149.168;2023-02-01T04:06:52;3;3;
61815;PMS5003;57055;-35.296;149.168;2023-02-01T04:09:21;3;3;
61815;PMS5003;57055;-35.296;149.168;2023-02-01T04:11:50;4;4;
61815;PMS5003;57055;-35.296;149.168;2023-02-01T04:14:19;2;2;
61815;PMS5003;57055;-35.296;149.168;2023-02-01T04:16:49;2;2;
61815;PMS5003;57055;-35.296;149.168;2023-02-01T04:19:18;3;3;
61815;PMS5003;57055;-35.296;149.168;2023-02-01T04:21:47;4;3;
61815;PMS5003;57055;-35.296;149.168;2023-02-01T04:24:16;3;3;
61815;PMS5003;57055;-35.296;149.168;2023-02-01T04:26:46;2;2;
61815;PMS5003;57055;-35.296;149.168;2023-02-01T04:29:15;3;3;
61815;PMS5003;57055;-35.296;149.168;2023-02-01T04:31:44;4;4;
61815;PMS5003;57055;-35.296;149.168;2023-02-01T04:34:13;3;2;
61815;PMS5003;57055;-35.296;149.168;2023-02-01T04:36:42;4;4;
61815;PMS5003;57055;-35.296;149.168;2023-02-01T04:39:12;2;2;
61815;PMS5003;57055;-35.296;149.168;2023-02-01T04:41:42;4;4;
61815;PMS5003;57055;-35.296;149.168;2023-02-01T04:44:13;6;5;
61815;PMS5003;57055;-35.296;149.168;2023-02-01T04:46:43;4;4;
61815;PMS5003;57055;-35.296;149.168;2023-02-01T04:49:13;4;4;
61815;PMS5003;57055;-35.296;149.168;2023-02-01T04:51:42;4;4;
61815;PMS5003;57055;-35.296;149.168;2023-02-01T04:54:11;4;4;
61815;PMS5003;57055;-35.296;149.168;2023-02-01T04:56:41;4;4;
61815;PMS5003;57055;-35.296;149.168;2023-02-01T04:59:10;5;5;
61815;PMS5003;57055;-35.296;149.168;2023-02-01T05:01:40;4;3;
61815;PMS5003;57055;-35.296;149.168;2023-02-01T05:04:09;7;7;
61815;PMS5003;57055;-35.296;149.168;2023-02-01T05:06:38;4;4;
61815;PMS5003;57055;-35.296;149.168;2023-02-01T05:09:08;6;4;
61815;PMS5003;57055;-35.296;149.168;2023-02-01T05:11:37;6;6;
61815;PMS5003;57055;-35.296;149.168;2023-02-01T05:14:06;5;5;
61815;PMS5003;57055;-35.296;149.168;2023-02-01T05:16:35;6;6;
61815;PMS5003;57055;-35.296;149.168;2023-02-01T05:19:04;6;6;
61815;PMS5003;57055;-35.296;149.168;2023-02-01T05:21:34;5;5;
61815;PMS5003;57055;-35.296;149.168;2023-02-01T05:24:03;5;5;
61815;PMS5003;57055;-35.296;149.168;2023-02-01T05:26:32;6;6;
61815;PMS5003;57055;-35.296;149.168;2023-02-01T05:29:02;5;5;
61815;PMS5003;57055;-35.296;149.168;2023-02-01T05:31:31;5;5;
61815;PMS5003;57055;-35.296;149.168;2023-02-01T05:34:01;3;3;
61815;PMS5003;57055;-35.296;149.168;2023-02-01T05:36:31;5;5;
61815;PMS5003;57055;-35.296;149.168;2023-02-01T05:39:00;6;5;
61815;PMS5003;57055;-35.296;149.168;2023-02-01T05:41:29;4;4;
61815;PMS5003;57055;-35.296;149.168;2023-02-01T05:43:59;5;5;
61815;PMS5003;57055;-35.296;149.168;2023-02-01T05:46:28;5;5;
61815;PMS5003;57055;-35.296;149.168;2023-02-01T05:48:57;6;6;
61815;PMS5003;57055;-35.296;149.168;2023-02-01T05:51:26;6;6;
61815;PMS5003;57055;-35.296;149.168;2023-02-01T05:53:55;4;4;
61815;PMS5003;57055;-35.296;149.168;2023-02-01T05:56:25;5;5;
61815;PMS5003;57055;-35.296;149.168;2023-02-01T05:58:54;4;4;
61815;PMS5003;57055;-35.296;149.168;2023-02-01T06:01:23;5;5;
61815;PMS5003;57055;-35.296;149.168;2023-02-01T06:03:52;4;4;
61815;PMS5003;57055;-35.296;149.168;2023-02-01T06:06:22;5;4;
61815;PMS5003;57055;-35.296;149.168;2023-02-01T06:08:51;6;4;
61815;PMS5003;57055;-35.296;149.168;2023-02-01T06:11:20;3;3;
61815;PMS5003;57055;-35.296;149.168;2023-02-01T06:13:49;5;5;
61815;PMS5003;57055;-35.296;149.168;2023-02-01T06:16:18;4;4;
61815;PMS5003;57055;-35.296;149.168;2023-02-01T06:18:49;4;4;
61815;PMS5003;57055;-35.296;149.168;2023-02-01T06:21:18;4;4;
61815;PMS5003;57055;-35.296;149.168;2023-02-01T06:23:47;3;3;
61815;PMS5003;57055;-35.296;149.168;2023-02-01T06:26:16;4;4;
61815;PMS5003;57055;-35.296;149.168;2023-02-01T06:28:46;4;4;
61815;PMS5003;57055;-35.296;149.168;2023-02-01T06:31:15;5;5;
61815;PMS5003;57055;-35.296;149.168;2023-02-01T06:33:44;3;3;
61815;PMS5003;57055;-35.296;149.168;2023-02-01T06:36:13;4;3;
61815;PMS5003;57055;-35.296;149.168;2023-02-01T06:38:42;3;3;
61815;PMS5003;57055;-35.296;149.168;2023-02-01T06:41:12;3;3;
61815;PMS5003;57055;-35.296;149.168;2023-02-01T06:43:41;4;4;
61815;PMS5003;57055;-35.296;149.168;2023-02-01T06:46:11;4;3;
61815;PMS5003;57055;-35.296;149.168;2023-02-01T06:48:40;3;3;
61815;PMS5003;57055;-35.296;149.168;2023-02-01T06:51:18;3;3;
61815;PMS5003;57055;-35.296;149.168;2023-02-01T06:53:48;2;2;
61815;PMS5003;57055;-35.296;149.168;2023-02-01T06:56:18;3;3;
61815;PMS5003;57055;-35.296;149.168;2023-02-01T06:58:47;3;3;
61815;PMS5003;57055;-35.296;149.168;2023-02-01T07:01:16;3;2;
61815;PMS5003;57055;-35.296;149.168;2023-02-01T07:03:47;3;3;
61815;PMS5003;57055;-35.296;149.168;2023-02-01T07:06:16;3;3;
61815;PMS5003;57055;-35.296;149.168;2023-02-01T07:08:45;2;2;
61815;PMS5003;57055;-35.296;149.168;2023-02-01T07:11:15;2;2;
61815;PMS5003;57055;-35.296;149.168;2023-02-01T07:13:45;2;2;
61815;PMS5003;57055;-35.296;149.168;2023-02-01T07:16:14;3;3;
61815;PMS5003;57055;-35.296;149.168;2023-02-01T07:18:46;2;2;
61815;PMS5003;57055;-35.296;149.168;2023-02-01T07:21:17;3;3;
61815;PMS5003;57055;-35.296;149.168;2023-02-01T07:23:46;2;2;
61815;PMS5003;57055;-35.296;149.168;2023-02-01T07:26:15;2;2;
61815;PMS5003;57055;-35.296;149.168;2023-02-01T07:28:45;3;3;
61815;PMS5003;57055;-35.296;149.168;2023-02-01T07:31:15;2;2;
61815;PMS5003;57055;-35.296;149.168;2023-02-01T07:33:45;4;4;
61815;PMS5003;57055;-35.296;149.168;2023-02-01T07:36:15;3;3;
61815;PMS5003;57055;-35.296;149.168;2023-02-01T07:38:44;3;3;
61815;PMS5003;57055;-35.296;149.168;2023-02-01T07:41:14;7;6;
61815;PMS5003;57055;-35.296;149.168;2023-02-01T07:43:44;6;6;
61815;PMS5003;57055;-35.296;149.168;2023-02-01T07:46:13;6;5;
61815;PMS5003;57055;-35.296;149.168;2023-02-01T07:48:42;8;8;
61815;PMS5003;57055;-35.296;149.168;2023-02-01T07:51:12;7;7;
61815;PMS5003;57055;-35.296;149.168;2023-02-01T07:53:43;6;6;
61815;PMS5003;57055;-35.296;149.168;2023-02-01T07:56:13;3;3;
61815;PMS5003;57055;-35.296;149.168;2023-02-01T07:58:43;4;4;
61815;PMS5003;57055;-35.296;149.168;2023-02-01T08:01:19;4;4;
61815;PMS5003;57055;-35.296;149.168;2023-02-01T08:03:50;2;2;
61815;PMS5003;57055;-35.296;149.168;2023-02-01T08:06:20;3;3;
61815;PMS5003;57055;-35.296;149.168;2023-02-01T08:08:50;5;4;
61815;PMS5003;57055;-35.296;149.168;2023-02-01T08:11:21;3;3;
61815;PMS5003;57055;-35.296;149.168;2023-02-01T08:13:51;3;2;
61815;PMS5003;57055;-35.296;149.168;2023-02-01T08:16:21;4;4;
61815;PMS5003;57055;-35.296;149.168;2023-02-01T08:18:51;3;3;
61815;PMS5003;57055;-35.296;149.168;2023-02-01T08:21:21;1;1;
61815;PMS5003;57055;-35.296;149.168;2023-02-01T08:23:52;3;3;
61815;PMS5003;57055;-35.296;149.168;2023-02-01T08:26:23;4;4;
61815;PMS5003;57055;-35.296;149.168;2023-02-01T08:28:54;2;2;
61815;PMS5003;57055;-35.296;149.168;2023-02-01T08:31:25;3;3;
61815;PMS5003;57055;-35.296;149.168;2023-02-01T08:33:55;3;3;
61815;PMS5003;57055;-35.296;149.168;2023-02-01T08:36:26;4;4;
61815;PMS5003;57055;-35.296;149.168;2023-02-01T08:38:56;3;3;
61815;PMS5003;57055;-35.296;149.168;2023-02-01T08:41:26;4;3;
61815;PMS5003;57055;-35.296;149.168;2023-02-01T08:43:57;3;3;
61815;PMS5003;57055;-35.296;149.168;2023-02-01T08:46:26;3;3;
61815;PMS5003;57055;-35.296;149.168;2023-02-01T08:48:55;2;2;
61815;PMS5003;57055;-35.296;149.168;2023-02-01T08:51:24;5;4;
61815;PMS5003;57055;-35.296;149.168;2023-02-01T08:53:54;3;2;
61815;PMS5003;57055;-35.296;149.168;2023-02-01T08:56:23;2;2;
61815;PMS5003;57055;-35.296;149.168;2023-02-01T08:58:52;1;1;
61815;PMS5003;57055;-35.296;149.168;2023-02-01T09:01:22;4;3;
61815;PMS5003;57055;-35.296;149.168;2023-02-01T09:03:52;0;0;
61815;PMS5003;57055;-35.296;149.168;2023-02-01T09:06:20;3;3;
61815;PMS5003;57055;-35.296;149.168;2023-02-01T09:08:49;3;3;
61815;PMS5003;57055;-35.296;149.168;2023-02-01T09:11:19;0;0;
61815;PMS5003;57055;-35.296;149.168;2023-02-01T09:13:48;1;1;
61815;PMS5003;57055;-35.296;149.168;2023-02-01T09:16:17;1;1;
61815;PMS5003;57055;-35.296;149.168;2023-02-01T09:18:47;1;1;
61815;PMS5003;57055;-35.296;149.168;2023-02-01T09:21:17;2;1;
61815;PMS5003;57055;-35.296;149.168;2023-02-01T09:23:45;1;1;
61815;PMS5003;57055;-35.296;149.168;2023-02-01T09:26:15;3;2;
61815;PMS5003;57055;-35.296;149.168;2023-02-01T09:28:44;2;2;
61815;PMS5003;57055;-35.296;149.168;2023-02-01T09:31:13;1;1;
61815;PMS5003;57055;-35.296;149.168;2023-02-01T09:33:42;1;1;
61815;PMS5003;57055;-35.296;149.168;2023-02-01T09:36:12;2;1;
61815;PMS5003;57055;-35.296;149.168;2023-02-01T09:38:41;1;1;
61815;PMS5003;57055;-35.296;149.168;2023-02-01T09:41:13;2;2;
61815;PMS5003;57055;-35.296;149.168;2023-02-01T09:43:58;1;1;
61815;PMS5003;57055;-35.296;149.168;2023-02-01T09:46:36;2;2;
61815;PMS5003;57055;-35.296;149.168;2023-02-01T09:49:05;1;1;
61815;PMS5003;57055;-35.296;149.168;2023-02-01T09:51:41;2;2;
61815;PMS5003;57055;-35.296;149.168;2023-02-01T09:54:15;4;3;
61815;PMS5003;57055;-35.296;149.168;2023-02-01T09:56:47;2;2;
61815;PMS5003;57055;-35.296;149.168;2023-02-01T09:59:26;2;2;
61815;PMS5003;57055;-35.296;149.168;2023-02-01T10:02:02;1;1;
61815;PMS5003;57055;-35.296;149.168;2023-02-01T10:04:38;0;0;
61815;PMS5003;57055;-35.296;149.168;2023-02-01T10:07:13;1;1;
61815;PMS5003;57055;-35.296;149.168;2023-02-01T10:09:54;1;1;
61815;PMS5003;57055;-35.296;149.168;2023-02-01T10:13:03;2;2;
61815;PMS5003;57055;-35.296;149.168;2023-02-01T10:15:46;3;3;
61815;PMS5003;57055;-35.296;149.168;2023-02-01T10:18:32;3;3;
61815;PMS5003;57055;-35.296;149.168;2023-02-01T10:21:10;3;3;
61815;PMS5003;57055;-35.296;149.168;2023-02-01T10:23:57;4;4;
61815;PMS5003;57055;-35.296;149.168;2023-02-01T10:26:39;4;4;
61815;PMS5003;57055;-35.296;149.168;2023-02-01T10:29:15;4;4;
61815;PMS5003;57055;-35.296;149.168;2023-02-01T10:31:47;7;3;
61815;PMS5003;57055;-35.296;149.168;2023-02-01T10:34:18;2;2;
61815;PMS5003;57055;-35.296;149.168;2023-02-01T10:36:52;6;6;
61815;PMS5003;57055;-35.296;149.168;2023-02-01T10:39:23;5;5;
61815;PMS5003;57055;-35.296;149.168;2023-02-01T10:41:53;4;4;
61815;PMS5003;57055;-35.296;149.168;2023-02-01T10:44:24;6;5;
61815;PMS5003;57055;-35.296;149.168;2023-02-01T10:46:56;5;5;
61815;PMS5003;57055;-35.296;149.168;2023-02-01T10:49:26;6;6;
61815;PMS5003;57055;-35.296;149.168;2023-02-01T10:52:05;5;5;
61815;PMS5003;57055;-35.296;149.168;2023-02-01T10:54:40;7;5;
61815;PMS5003;57055;-35.296;149.168;2023-02-01T10:57:10;6;6;
61815;PMS5003;57055;-35.296;149.168;2023-02-01T10:59:49;6;5;
61815;PMS5003;57055;-35.296;149.168;2023-02-01T11:02:21;5;5;
61815;PMS5003;57055;-35.296;149.168;2023-02-01T11:04:58;6;5;
61815;PMS5003;57055;-35.296;149.168;2023-02-01T11:07:30;4;4;
61815;PMS5003;57055;-35.296;149.168;2023-02-01T11:09:59;5;5;
61815;PMS5003;57055;-35.296;149.168;2023-02-01T11:12:29;7;7;
61815;PMS5003;57055;-35.296;149.168;2023-02-01T11:15:01;5;5;
61815;PMS5003;57055;-35.296;149.168;2023-02-01T11:17:42;6;5;
61815;PMS5003;57055;-35.296;149.168;2023-02-01T11:20:14;6;6;
61815;PMS5003;57055;-35.296;149.168;2023-02-01T11:22:46;6;5;
61815;PMS5003;57055;-35.296;149.168;2023-02-01T11:25:20;5;5;
61815;PMS5003;57055;-35.296;149.168;2023-02-01T11:27:50;7;5;
61815;PMS5003;57055;-35.296;149.168;2023-02-01T11:30:25;5;5;
61815;PMS5003;57055;-35.296;149.168;2023-02-01T11:33:00;6;6;
61815;PMS5003;57055;-35.296;149.168;2023-02-01T11:35:32;7;7;
61815;PMS5003;57055;-35.296;149.168;2023-02-01T11:38:10;5;5;
61815;PMS5003;57055;-35.296;149.168;2023-02-01T11:40:46;6;6;
61815;PMS5003;57055;-35.296;149.168;2023-02-01T11:43:17;6;6;
61815;PMS5003;57055;-35.296;149.168;2023-02-01T11:45:54;5;5;
61815;PMS5003;57055;-35.296;149.168;2023-02-01T11:48:25;7;5;
61815;PMS5003;57055;-35.296;149.168;2023-02-01T11:50:59;8;8;
61815;PMS5003;57055;-35.296;149.168;2023-02-01T11:53:50;7;7;
61815;PMS5003;57055;-35.296;149.168;2023-02-01T11:56:32;7;7;
61815;PMS5003;57055;-35.296;149.168;2023-02-01T11:59:11;5;5;
61815;PMS5003;57055;-35.296;149.168;2023-02-01T12:01:55;7;5;
61815;PMS5003;57055;-35.296;149.168;2023-02-01T12:04:58;7;7;
61815;PMS5003;57055;-35.296;149.168;2023-02-01T12:07:41;6;6;
61815;PMS5003;57055;-35.296;149.168;2023-02-01T12:10:21;7;7;
61815;PMS5003;57055;-35.296;149.168;2023-02-01T12:13:06;6;6;
61815;PMS5003;57055;-35.296;149.168;2023-02-01T12:15:52;5;4;
61815;PMS5003;57055;-35.296;149.168;2023-02-01T12:18:40;6;6;
61815;PMS5003;57055;-35.296;149.168;2023-02-01T12:21:26;6;6;
61815;PMS5003;57055;-35.296;149.168;2023-02-01T12:24:15;6;6;
61815;PMS5003;57055;-35.296;149.168;2023-02-01T12:26:58;5;5;
61815;PMS5003;57055;-35.296;149.168;2023-02-01T12:29:43;6;6;
61815;PMS5003;57055;-35.296;149.168;2023-02-01T12:32:32;8;7;
61815;PMS5003;57055;-35.296;149.168;2023-02-01T12:35:17;8;7;
61815;PMS5003;57055;-35.296;149.168;2023-02-01T12:38:09;6;6;
61815;PMS5003;57055;-35.296;149.168;2023-02-01T12:40:53;6;6;
61815;PMS5003;57055;-35.296;149.168;2023-02-01T12:43:34;6;6;
61815;PMS5003;57055;-35.296;149.168;2023-02-01T12:46:06;6;6;
61815;PMS5003;57055;-35.296;149.168;2023-02-01T12:48:41;8;7;
61815;PMS5003;57055;-35.296;149.168;2023-02-01T12:51:18;5;5;
61815;PMS5003;57055;-35.296;149.168;2023-02-01T12:53:51;6;6;
61815;PMS5003;57055;-35.296;149.168;2023-02-01T12:56:25;7;7;
61815;PMS5003;57055;-35.296;149.168;2023-02-01T12:58:59;9;7;
61815;PMS5003;57055;-35.296;149.168;2023-02-01T13:01:33;6;6;
61815;PMS5003;57055;-35.296;149.168;2023-02-01T13:04:08;6;6;
61815;PMS5003;57055;-35.296;149.168;2023-02-01T13:06:43;5;4;
61815;PMS5003;57055;-35.296;149.168;2023-02-01T13:09:18;9;7;
61815;PMS5003;57055;-35.296;149.168;2023-02-01T13:11:53;7;6;
61815;PMS5003;57055;-35.296;149.168;2023-02-01T13:14:29;6;6;
61815;PMS5003;57055;-35.296;149.168;2023-02-01T13:17:09;6;6;
61815;PMS5003;57055;-35.296;149.168;2023-02-01T13:19:43;7;7;
61815;PMS5003;57055;-35.296;149.168;2023-02-01T13:22:19;7;7;
61815;PMS5003;57055;-35.296;149.168;2023-02-01T13:24:53;7;7;
61815;PMS5003;57055;-35.296;149.168;2023-02-01T13:27:26;5;5;
61815;PMS5003;57055;-35.296;149.168;2023-02-01T13:29:59;8;6;
61815;PMS5003;57055;-35.296;149.168;2023-02-01T13:32:37;4;4;
61815;PMS5003;57055;-35.296;149.168;2023-02-01T13:35:30;9;9;
61815;PMS5003;57055;-35.296;149.168;2023-02-01T13:38:22;6;6;
61815;PMS5003;57055;-35.296;149.168;2023-02-01T13:41:40;3;3;
61815;PMS5003;57055;-35.296;149.168;2023-02-01T13:44:19;6;5;
61815;PMS5003;57055;-35.296;149.168;2023-02-01T13:46:56;6;3;
61815;PMS5003;57055;-35.296;149.168;2023-02-01T13:49:28;7;6;
61815;PMS5003;57055;-35.296;149.168;2023-02-01T13:52:04;6;6;
61815;PMS5003;57055;-35.296;149.168;2023-02-01T13:54:44;7;6;
61815;PMS5003;57055;-35.296;149.168;2023-02-01T13:57:15;5;5;
61815;PMS5003;57055;-35.296;149.168;2023-02-01T14:00:07;6;6;
61815;PMS5003;57055;-35.296;149.168;2023-02-01T14:03:01;6;6;
61815;PMS5003;57055;-35.296;149.168;2023-02-01T14:06:44;6;6;
61815;PMS5003;57055;-35.296;149.168;2023-02-01T14:09:17;7;7;
61815;PMS5003;57055;-35.296;149.168;2023-02-01T14:12:04;6;6;
61815;PMS5003;57055;-35.296;149.168;2023-02-01T14:15:20;6;6;
61815;PMS5003;57055;-35.296;149.168;2023-02-01T14:15:23;6;6;
61815;PMS5003;57055;-35.296;149.168;2023-02-01T14:17:54;6;6;
61815;PMS5003;57055;-35.296;149.168;2023-02-01T14:20:39;6;6;
61815;PMS5003;57055;-35.296;149.168;2023-02-01T14:23:12;8;6;
61815;PMS5003;57055;-35.296;149.168;2023-02-01T14:25:45;6;6;
61815;PMS5003;57055;-35.296;149.168;2023-02-01T14:28:28;7;7;
61815;PMS5003;57055;-35.296;149.168;2023-02-01T14:30:58;6;6;
61815;PMS5003;57055;-35.296;149.168;2023-02-01T14:33:41;8;7;
61815;PMS5003;57055;-35.296;149.168;2023-02-01T14:36:11;11;9;
61815;PMS5003;57055;-35.296;149.168;2023-02-01T14:38:47;6;6;
61815;PMS5003;57055;-35.296;149.168;2023-02-01T14:41:23;9;7;
61815;PMS5003;57055;-35.296;149.168;2023-02-01T14:44:54;8;7;
61815;PMS5003;57055;-35.296;149.168;2023-02-01T14:48:48;6;6;
61815;PMS5003;57055;-35.296;149.168;2023-02-01T14:51:19;8;8;
61815;PMS5003;57055;-35.296;149.168;2023-02-01T14:53:51;6;6;
61815;PMS5003;57055;-35.296;149.168;2023-02-01T14:56:20;6;6;
61815;PMS5003;57055;-35.296;149.168;2023-02-01T14:58:55;6;6;
61815;PMS5003;57055;-35.296;149.168;2023-02-01T15:01:29;6;6;
61815;PMS5003;57055;-35.296;149.168;2023-02-01T15:04:02;5;5;
61815;PMS5003;57055;-35.296;149.168;2023-02-01T15:06:35;7;7;
61815;PMS5003;57055;-35.296;149.168;2023-02-01T15:09:08;6;6;
61815;PMS5003;57055;-35.296;149.168;2023-02-01T15:11:58;8;8;
61815;PMS5003;57055;-35.296;149.168;2023-02-01T15:14:29;7;6;
61815;PMS5003;57055;-35.296;149.168;2023-02-01T15:17:00;7;7;
61815;PMS5003;57055;-35.296;149.168;2023-02-01T15:19:30;9;7;
61815;PMS5003;57055;-35.296;149.168;2023-02-01T15:21:59;8;7;
61815;PMS5003;57055;-35.296;149.168;2023-02-01T15:24:29;6;6;
61815;PMS5003;57055;-35.296;149.168;2023-02-01T15:27:02;8;6;
61815;PMS5003;57055;-35.296;149.168;2023-02-01T15:29:32;8;8;
61815;PMS5003;57055;-35.296;149.168;2023-02-01T15:32:01;8;8;
61815;PMS5003;57055;-35.296;149.168;2023-02-01T15:34:46;6;6;
61815;PMS5003;57055;-35.296;149.168;2023-02-01T15:37:16;9;9;
61815;PMS5003;57055;-35.296;149.168;2023-02-01T15:40:04;9;7;
61815;PMS5003;57055;-35.296;149.168;2023-02-01T15:42:49;6;6;
61815;PMS5003;57055;-35.296;149.168;2023-02-01T15:45:22;7;7;
61815;PMS5003;57055;-35.296;149.168;2023-02-01T15:47:54;6;6;
61815;PMS5003;57055;-35.296;149.168;2023-02-01T15:50:26;9;7;
61815;PMS5003;57055;-35.296;149.168;2023-02-01T15:52:58;5;5;
61815;PMS5003;57055;-35.296;149.168;2023-02-01T15:55:31;5;5;
61815;PMS5003;57055;-35.296;149.168;2023-02-01T15:58:05;6;6;
61815;PMS5003;57055;-35.296;149.168;2023-02-01T16:00:43;7;7;
61815;PMS5003;57055;-35.296;149.168;2023-02-01T16:03:36;6;6;
61815;PMS5003;57055;-35.296;149.168;2023-02-01T16:06:08;8;8;
61815;PMS5003;57055;-35.296;149.168;2023-02-01T16:08:49;6;6;
61815;PMS5003;57055;-35.296;149.168;2023-02-01T16:11:23;7;6;
61815;PMS5003;57055;-35.296;149.168;2023-02-01T16:13:53;7;7;
61815;PMS5003;57055;-35.296;149.168;2023-02-01T16:16:23;9;7;
61815;PMS5003;57055;-35.296;149.168;2023-02-01T16:18:53;7;7;
61815;PMS5003;57055;-35.296;149.168;2023-02-01T16:21:21;8;7;
61815;PMS5003;57055;-35.296;149.168;2023-02-01T16:23:51;7;7;
61815;PMS5003;57055;-35.296;149.168;2023-02-01T16:26:20;4;4;
61815;PMS5003;57055;-35.296;149.168;2023-02-01T16:28:50;4;4;
61815;PMS5003;57055;-35.296;149.168;2023-02-01T16:31:21;6;6;
61815;PMS5003;57055;-35.296;149.168;2023-02-01T16:33:55;6;6;
61815;PMS5003;57055;-35.296;149.168;2023-02-01T16:36:24;8;7;
61815;PMS5003;57055;-35.296;149.168;2023-02-01T16:38:54;5;5;
61815;PMS5003;57055;-35.296;149.168;2023-02-01T16:41:23;7;6;
61815;PMS5003;57055;-35.296;149.168;2023-02-01T16:43:53;6;6;